FZAA/FIH METAR and TAF weather

Enter ICAO airport designator
Station Type Date Time Source
FZAA METAR 2021/01/22 06:00 UTC NOAA

FZAA 220600Z 00000KT 6000 BKN016 25/23 Q1012 NOSIG


Station Type Date Time Source
FZAA Decoded METAR 2021/01/22 06:00 UTC NOAA

Kinshasa / N'Djili, Congo, Democratic Republic of the (FZAA) 04-23S 015-26E 312M
Jan 22, 2021 - 01:00 AM EST / 2021.01.22 0600 UTC
Wind: Calm:0
Visibility: 3 mile(s):0
Sky conditions: mostly cloudy
Temperature: 77 F (25 C)
Dew Point: 73 F (23 C)
Relative Humidity: 88%
Pressure (altimeter): 29.88 in. Hg (1012 hPa)
ob: FZAA 220600Z 00000KT 6000 BKN016 25/23 Q1012 NOSIG
cycle: 6

Station Type Date Time Source
FZAA TAF 2021/01/22 06:33 UTC NOAA

TAF FZAA 220500Z 2206/2312 27006KT 8000 SCT016
BECMG 2208/2210 SCT020 FEW030CB PROB30 2211/2216 TS
BECMG 2219/2221 SCT018

Example: see airport list